Time;durP1;ratioP1;P1;durP2;ratioP2;P2;SDS_P1;SDS_P2;PMS_P1;PMS_P2;Temp;Humidity;BMP_temperature;BMP_pressure;BME280_temperature;BME280_humidity;BME280_pressure;Samples;Min_cycle;Max_cycle;Signal;HPM_P1;HPM_P2
2021/01/23 00:01:03;;;;;;;10.68;6.72;;;;;;;2.10;86.90;98395.44;5047859;28;20049;-77
2021/01/23 00:03:29;;;;;;;15.90;7.30;;;;;;;2.07;87.11;98387.69;5043007;28;20045;-75
2021/01/23 00:05:55;;;;;;;14.50;7.80;;;;;;;2.11;86.89;98401.53;5044730;28;20335;-75
2021/01/23 00:08:21;;;;;;;15.43;7.18;;;;;;;2.09;86.95;98399.00;5044254;28;20095;-75
2021/01/23 00:10:47;;;;;;;12.20;6.88;;;;;;;2.02;86.94;98385.31;5052047;28;20045;-77
2021/01/23 00:13:13;;;;;;;12.57;7.00;;;;;;;2.02;87.20;98382.69;5055017;28;20053;-76
2021/01/23 00:15:40;;;;;;;15.98;8.25;;;;;;;2.08;87.24;98393.81;5054920;28;20049;-77
2021/01/23 00:18:06;;;;;;;16.75;7.00;;;;;;;2.06;87.33;98393.06;5053848;28;20053;-77
2021/01/23 00:20:33;;;;;;;10.45;7.28;;;;;;;2.06;86.98;98393.06;5055094;28;20063;-77
2021/01/23 00:22:59;;;;;;;9.77;7.20;;;;;;;2.10;87.11;98398.06;5054866;28;20060;-74
2021/01/23 00:25:25;;;;;;;11.32;7.22;;;;;;;2.07;87.45;98394.75;5055024;28;20056;-75
2021/01/23 00:27:51;;;;;;;11.18;6.47;;;;;;;1.98;87.44;98385.56;5054425;28;20328;-76
2021/01/23 00:30:17;;;;;;;13.90;6.68;;;;;;;2.01;87.47;98398.56;5054258;28;20056;-77
2021/01/23 00:32:43;;;;;;;11.65;7.28;;;;;;;1.97;87.67;98389.97;5055582;28;20126;-77
2021/01/23 00:35:12;;;;;;;12.18;6.60;;;;;;;1.96;87.66;98390.09;5054491;28;20143;-76
2021/01/23 00:37:38;;;;;;;14.00;6.97;;;;;;;1.96;87.82;98396.19;5053996;28;20603;-77
2021/01/23 00:40:05;;;;;;;12.60;6.18;;;;;;;1.95;87.55;98386.59;5034564;28;20053;-77
2021/01/23 00:42:32;;;;;;;13.35;6.60;;;;;;;1.95;87.47;98394.47;5034860;28;20053;-76
2021/01/23 00:44:58;;;;;;;10.90;6.80;;;;;;;1.94;87.63;98386.66;5034507;28;20057;-77
2021/01/23 00:47:24;;;;;;;11.60;6.50;;;;;;;1.89;87.69;98389.56;5034081;28;20037;-77
2021/01/23 00:49:51;;;;;;;10.95;6.78;;;;;;;1.90;87.71;98378.09;5035313;28;20057;-76
2021/01/23 00:52:17;;;;;;;17.85;6.68;;;;;;;1.93;87.58;98375.31;5033857;28;20490;-77
2021/01/23 00:54:43;;;;;;;10.88;6.25;;;;;;;1.96;87.68;98369.88;5034594;28;20053;-77
2021/01/23 00:57:09;;;;;;;10.40;6.50;;;;;;;1.97;87.71;98371.56;5033553;28;20493;-76
2021/01/23 00:59:35;;;;;;;12.25;6.35;;;;;;;1.94;88.12;98368.25;5036279;28;20057;-75
2021/01/23 01:02:01;;;;;;;12.02;6.60;;;;;;;1.89;87.97;98360.59;5038394;28;20438;-75
2021/01/23 01:04:29;;;;;;;9.13;5.65;;;;;;;1.98;88.12;98367.16;5038316;28;20064;-75
2021/01/23 01:06:55;;;;;;;15.60;6.45;;;;;;;2.01;88.36;98370.47;5037122;28;20046;-75
2021/01/23 01:09:21;;;;;;;11.57;6.40;;;;;;;1.94;88.19;98355.94;5036914;28;20057;-76
2021/01/23 01:11:48;;;;;;;13.68;6.43;;;;;;;2.09;87.98;98371.84;5037876;28;20049;-76
2021/01/23 01:14:15;;;;;;;12.40;5.93;;;;;;;2.15;87.76;98385.50;5037474;28;20049;-76
2021/01/23 01:16:41;;;;;;;10.18;5.68;;;;;;;2.13;87.82;98387.34;5038361;28;20056;-76
2021/01/23 01:19:08;;;;;;;9.95;6.05;;;;;;;2.09;88.26;98393.75;5038425;28;20050;-76
2021/01/23 01:21:34;;;;;;;10.93;6.50;;;;;;;2.01;88.29;98374.88;5038605;28;20056;-76
2021/01/23 01:24:01;;;;;;;12.70;6.22;;;;;;;2.08;88.06;98373.63;5041133;28;20459;-76
2021/01/23 01:26:27;;;;;;;9.50;5.85;;;;;;;2.10;88.33;98379.66;5023036;28;20401;-76
2021/01/23 01:28:54;;;;;;;10.52;5.72;;;;;;;2.16;87.98;98374.03;5023514;28;20447;-77
2021/01/23 01:31:21;;;;;;;13.15;6.47;;;;;;;2.02;88.07;98361.63;5038713;28;20049;-76
2021/01/23 01:33:48;;;;;;;11.95;6.75;;;;;;;2.05;87.97;98359.78;5039054;28;20060;-76
2021/01/23 01:36:15;;;;;;;11.73;6.50;;;;;;;2.05;88.33;98375.59;5039141;28;20351;-76
2021/01/23 01:38:42;;;;;;;12.93;6.88;;;;;;;2.06;88.28;98366.75;5045053;28;20635;-75
2021/01/23 01:41:09;;;;;;;11.98;6.68;;;;;;;2.08;88.36;98380.66;5057512;28;20072;-76
2021/01/23 01:43:35;;;;;;;9.20;6.90;;;;;;;2.09;88.37;98380.59;5057385;28;20133;-75
2021/01/23 01:46:04;;;;;;;15.90;9.25;;;;;;;2.07;88.00;98379.81;5056989;28;20060;-75
2021/01/23 01:48:30;;;;;;;14.98;7.53;;;;;;;2.14;88.24;98382.97;5056955;28;20053;-75
2021/01/23 01:50:57;;;;;;;11.52;6.47;;;;;;;2.09;88.34;98377.09;5056861;28;20049;-75
2021/01/23 01:53:23;;;;;;;10.70;7.10;;;;;;;2.04;88.66;98372.09;5057097;28;20437;-76
2021/01/23 01:55:50;;;;;;;18.35;7.10;;;;;;;2.07;88.50;98371.91;5056965;28;20063;-76
2021/01/23 01:58:17;;;;;;;15.35;8.93;;;;;;;2.05;88.65;98365.88;5056930;28;20045;-76
2021/01/23 02:00:46;;;;;;;12.60;7.50;;;;;;;1.94;88.68;98352.47;5057149;28;20067;-75
2021/01/23 02:03:21;;;;;;;12.88;7.25;;;;;;;2.05;88.88;98371.16;5056768;28;20091;-76
2021/01/23 02:06:18;;;;;;;9.95;7.57;;;;;;;2.12;88.45;98371.69;5056765;28;20045;-76
2021/01/23 02:09:27;;;;;;;9.98;6.47;;;;;;;2.12;88.23;98372.50;5056716;28;20079;-75
2021/01/23 02:12:15;;;;;;;9.55;6.72;;;;;;;2.11;88.40;98370.81;5014399;28;20057;-76
2021/01/23 02:14:51;;;;;;;13.57;6.63;;;;;;;2.09;88.40;98371.84;5054572;28;20053;-75
2021/01/23 02:17:21;;;;;;;14.07;6.95;;;;;;;1.98;88.56;98361.91;5056376;28;20052;-76
2021/01/23 02:20:09;;;;;;;10.38;6.75;;;;;;;2.03;88.50;98375.66;5055457;28;20055;-76
2021/01/23 02:23:00;;;;;;;10.73;6.38;;;;;;;2.00;88.77;98370.53;5056212;28;20056;-76
2021/01/23 02:25:27;;;;;;;15.32;6.20;;;;;;;1.93;88.54;98358.66;5056371;28;20045;-76
2021/01/23 02:28:18;;;;;;;10.65;7.30;;;;;;;1.97;88.73;98368.94;5056316;28;20052;-76
2021/01/23 02:30:53;;;;;;;;;;;;;;;1.98;88.49;98375.06;5056878;28;20049;-76
2021/01/23 02:33:22;;;;;;;11.02;6.35;;;;;;;1.93;88.62;98375.31;5054999;28;19978;-76
2021/01/23 02:35:49;;;;;;;9.02;6.35;;;;;;;1.92;88.74;98370.97;5055919;28;20552;-76
2021/01/23 02:38:16;;;;;;;11.82;7.13;;;;;;;1.90;88.78;98362.31;5051227;28;20061;-77
2021/01/23 02:40:43;;;;;;;14.82;6.88;;;;;;;1.96;88.45;98371.66;5035082;28;20064;-76
2021/01/23 02:43:09;;;;;;;13.20;6.78;;;;;;;1.97;88.43;98363.66;5035129;28;20055;-76
2021/01/23 02:45:35;;;;;;;15.32;6.25;;;;;;;1.93;88.13;98362.16;5035690;28;20589;-76
2021/01/23 02:48:03;;;;;;;12.40;6.40;;;;;;;1.90;88.44;98362.31;5035980;28;20321;-76
2021/01/23 02:50:29;;;;;;;10.95;6.82;;;;;;;1.92;88.41;98357.81;5035962;28;20057;-76
2021/01/23 02:53:10;;;;;;;9.20;5.80;;;;;;;1.90;88.28;98355.28;5035893;28;20060;-77
2021/01/23 02:55:41;;;;;;;9.93;5.82;;;;;;;1.93;88.41;98361.28;5035897;28;20423;-77
2021/01/23 02:58:09;;;;;;;12.73;5.38;;;;;;;1.89;88.33;98360.59;5036101;28;20048;-76
2021/01/23 03:00:37;;;;;;;11.98;5.57;;;;;;;1.87;88.00;98341.44;5035954;28;20180;-77
2021/01/23 03:03:05;;;;;;;12.13;5.53;;;;;;;1.94;88.28;98355.94;5035686;28;20485;-77
2021/01/23 03:05:34;;;;;;;11.30;5.50;;;;;;;1.99;87.72;98358.31;5035600;28;20087;-75
2021/01/23 03:08:02;;;;;;;11.45;5.55;;;;;;;2.02;87.93;98368.69;5035923;28;20051;-76
2021/01/23 03:10:40;;;;;;;10.43;5.32;;;;;;;2.00;87.79;98360.88;5019805;28;20057;-76
2021/01/23 03:13:07;;;;;;;7.65;5.30;;;;;;;1.99;87.64;98356.56;5036171;28;20099;-76
2021/01/23 03:15:34;;;;;;;10.60;5.30;;;;;;;2.02;87.63;98352.91;5035443;28;20050;-76
2021/01/23 03:18:02;;;;;;;9.35;5.30;;;;;;;2.10;87.68;98357.72;5034627;28;20068;-76
2021/01/23 03:20:29;;;;;;;7.65;4.50;;;;;;;2.15;87.72;98367.09;5035389;28;20063;-76
2021/01/23 03:22:59;;;;;;;10.55;4.93;;;;;;;2.22;87.50;98361.50;5033607;28;20049;-76
2021/01/23 03:25:27;;;;;;;11.23;5.55;;;;;;;2.30;87.16;98354.00;5033963;28;20060;-75
2021/01/23 03:27:58;;;;;;;8.10;5.13;;;;;;;2.35;86.69;98359.00;5035201;28;20092;-76
2021/01/23 03:30:25;;;;;;;8.50;5.68;;;;;;;2.42;86.56;98353.31;5034223;28;20137;-76
2021/01/23 03:32:52;;;;;;;7.85;5.05;;;;;;;2.53;86.07;98346.56;5035143;28;20061;-76
2021/01/23 03:35:20;;;;;;;21.10;4.90;;;;;;;2.62;85.69;98347.84;5034933;28;20092;-76
2021/01/23 03:37:46;;;;;;;12.60;4.95;;;;;;;2.62;86.03;98339.94;5035933;28;20050;-76
2021/01/23 03:40:13;;;;;;;10.25;4.97;;;;;;;2.76;85.36;98344.38;5055292;28;20053;-75
2021/01/23 03:42:40;;;;;;;9.73;4.78;;;;;;;2.79;85.24;98339.78;5054968;28;20094;-76
2021/01/23 03:45:08;;;;;;;9.38;5.53;;;;;;;2.83;84.84;98343.13;5055270;28;20056;-76
2021/01/23 03:47:35;;;;;;;7.55;4.75;;;;;;;2.84;85.06;98343.00;5053868;28;20053;-76
2021/01/23 03:50:03;;;;;;;6.20;4.70;;;;;;;2.84;84.92;98343.00;5054949;28;20132;-76
2021/01/23 03:52:30;;;;;;;9.65;5.10;;;;;;;2.93;85.10;98346.03;5055025;28;20088;-76
2021/01/23 03:54:56;;;;;;;10.82;5.20;;;;;;;2.89;85.35;98348.00;5054937;28;20053;-76
2021/01/23 03:57:22;;;;;;;12.73;5.63;;;;;;;2.97;84.78;98344.94;5054844;28;20316;-76
2021/01/23 03:59:48;;;;;;;8.10;4.50;;;;;;;3.02;84.84;98344.66;5054798;28;20048;-76
2021/01/23 04:02:14;;;;;;;12.77;5.75;;;;;;;3.04;85.23;98343.63;5054898;28;20049;-76
2021/01/23 04:04:41;;;;;;;13.05;5.63;;;;;;;2.93;86.38;98338.13;5055046;28;20053;-76
2021/01/23 04:07:07;;;;;;;8.73;5.70;;;;;;;2.89;87.34;98334.00;5055032;28;20056;-75
2021/01/23 04:09:33;;;;;;;11.57;5.95;;;;;;;2.78;88.02;98332.81;5054893;28;20053;-76
2021/01/23 04:11:59;;;;;;;10.80;5.70;;;;;;;2.63;89.31;98321.41;5054949;28;20056;-76
2021/01/23 04:14:25;;;;;;;10.50;5.55;;;;;;;2.76;88.97;98324.19;5054064;28;20114;-76
2021/01/23 04:16:52;;;;;;;8.90;5.90;;;;;;;2.68;89.45;98315.88;5054775;28;20049;-76
2021/01/23 04:19:18;;;;;;;10.95;6.70;;;;;;;2.77;89.38;98317.97;5054909;28;20088;-76
2021/01/23 04:21:45;;;;;;;9.07;6.35;;;;;;;2.80;88.77;98312.53;5055246;28;20049;-76
2021/01/23 04:24:11;;;;;;;12.48;6.35;;;;;;;2.87;88.77;98314.81;5054743;28;20077;-76
2021/01/23 04:26:39;;;;;;;14.35;5.68;;;;;;;2.87;89.11;98320.06;5054508;28;20332;-76
2021/01/23 04:29:07;;;;;;;12.57;6.80;;;;;;;2.89;88.95;98305.00;5054709;28;20052;-75
2021/01/23 04:31:34;;;;;;;14.13;6.35;;;;;;;2.64;89.00;98277.47;5054848;28;20060;-76
2021/01/23 04:34:00;;;;;;;11.05;6.93;;;;;;;2.74;89.25;98299.72;5054513;28;20354;-76
2021/01/23 04:36:28;;;;;;;13.40;6.53;;;;;;;2.91;88.21;98314.53;5057248;28;20123;-76
2021/01/23 04:38:54;;;;;;;10.85;5.72;;;;;;;3.00;88.07;98305.22;5048205;28;20374;-75
2021/01/23 04:41:21;;;;;;;12.40;7.00;;;;;;;2.90;88.46;98288.25;5038320;28;20049;-76
2021/01/23 04:43:48;;;;;;;11.88;6.60;;;;;;;3.01;87.97;98301.66;5038325;28;20050;-75
2021/01/23 04:46:17;;;;;;;9.70;7.40;;;;;;;3.00;88.20;98310.50;5037285;28;20366;-75
2021/01/23 04:48:44;;;;;;;12.05;6.85;;;;;;;3.02;88.39;98311.25;5038144;28;20081;-75
2021/01/23 04:51:11;;;;;;;13.35;7.38;;;;;;;2.87;88.60;98285.81;5037928;28;20064;-75
2021/01/23 04:53:37;;;;;;;11.95;6.82;;;;;;;3.08;88.07;98305.63;5038375;28;20083;-75
2021/01/23 04:56:05;;;;;;;14.00;6.85;;;;;;;3.06;88.07;98293.47;5038337;28;20061;-76
2021/01/23 04:58:31;;;;;;;9.75;6.30;;;;;;;3.11;87.78;98294.88;5036996;28;20454;-76
2021/01/23 05:00:58;;;;;;;10.65;6.90;;;;;;;3.13;87.27;98284.25;5037938;28;20336;-76
2021/01/23 05:03:24;;;;;;;11.13;6.80;;;;;;;3.19;87.12;98288.28;5036870;28;20049;-76
2021/01/23 05:06:06;;;;;;;11.00;6.70;;;;;;;3.11;88.03;98281.69;5038143;28;20128;-76
2021/01/23 05:08:38;;;;;;;11.18;6.40;;;;;;;3.17;87.71;98290.19;5037902;28;20095;-76
2021/01/23 05:11:05;;;;;;;9.70;6.65;;;;;;;3.15;87.63;98278.88;5037662;28;20056;-75
2021/01/23 05:13:31;;;;;;;9.27;6.43;;;;;;;3.20;87.69;98284.69;5037782;28;20061;-75
2021/01/23 05:15:58;;;;;;;13.48;7.07;;;;;;;3.23;87.31;98289.81;5036619;28;20493;-75
2021/01/23 05:18:24;;;;;;;13.27;7.93;;;;;;;3.15;87.39;98287.63;5037769;28;20053;-75
2021/01/23 05:20:53;;;;;;;10.43;7.40;;;;;;;3.20;87.56;98284.69;5037624;28;20107;-75
2021/01/23 05:23:24;;;;;;;13.93;8.32;;;;;;;3.19;87.72;98285.66;5037593;28;20065;-75
2021/01/23 05:25:57;;;;;;;10.07;7.70;;;;;;;3.17;87.96;98301.56;5037762;28;20423;-75
2021/01/23 05:28:35;;;;;;;12.68;8.40;;;;;;;3.21;87.62;98297.78;5037763;28;20103;-75
2021/01/23 05:31:05;;;;;;;11.50;8.32;;;;;;;3.19;87.57;98293.56;5037725;28;20053;-76
2021/01/23 05:33:33;;;;;;;14.55;7.97;;;;;;;3.20;87.62;98287.34;5037668;28;20076;-75
2021/01/23 05:36:07;;;;;;;13.45;8.82;;;;;;;3.23;87.78;98292.44;5037103;28;20455;-75
2021/01/23 05:38:37;;;;;;;9.80;7.45;;;;;;;3.26;87.63;98289.59;5044578;28;20129;-76
2021/01/23 05:41:03;;;;;;;13.07;8.55;;;;;;;3.27;87.49;98296.56;5057441;28;20057;-75
2021/01/23 05:43:35;;;;;;;11.95;8.27;;;;;;;3.32;86.92;98288.41;5056989;28;20450;-75
2021/01/23 05:46:05;;;;;;;12.80;7.70;;;;;;;3.31;86.93;98289.34;5056662;28;20067;-75
2021/01/23 05:48:34;;;;;;;12.52;8.25;;;;;;;3.22;86.90;98274.94;5057277;28;20049;-75
2021/01/23 05:51:04;;;;;;;12.85;8.25;;;;;;;3.34;87.09;98286.50;5056384;28;20052;-76
2021/01/23 05:53:31;;;;;;;11.20;7.65;;;;;;;3.31;86.75;98282.25;5057530;28;20057;-76
2021/01/23 05:55:59;;;;;;;11.65;8.10;;;;;;;3.23;87.23;98288.00;5058573;28;20067;-76
2021/01/23 05:58:29;;;;;;;11.20;7.68;;;;;;;3.31;87.05;98298.09;5056858;28;20391;-76
2021/01/23 06:00:58;;;;;;;19.27;10.63;;;;;;;3.30;87.00;98288.47;5057460;28;20057;-76
2021/01/23 06:03:40;;;;;;;12.32;7.88;;;;;;;3.29;87.65;98294.72;5057569;28;20060;-76
2021/01/23 06:06:06;;;;;;;11.88;7.88;;;;;;;3.38;86.76;98295.94;5057521;28;20096;-76
2021/01/23 06:08:52;;;;;;;13.30;8.18;;;;;;;3.39;86.73;98295.81;5057062;28;20049;-76
2021/01/23 06:11:19;;;;;;;12.07;7.70;;;;;;;3.38;87.17;98302.03;5056576;28;20115;-76
2021/01/23 06:13:48;;;;;;;13.82;8.30;;;;;;;3.35;87.16;98301.38;5056530;28;20453;-76
2021/01/23 06:16:44;;;;;;;10.07;7.72;;;;;;;3.39;86.93;98306.38;5056713;28;20057;-76
2021/01/23 06:19:11;;;;;;;13.13;8.27;;;;;;;3.41;86.83;98301.00;5055634;28;20151;-76
2021/01/23 06:21:43;;;;;;;14.18;7.53;;;;;;;3.48;86.45;98304.13;5056432;28;20508;-76
2021/01/23 06:24:17;;;;;;;12.70;8.38;;;;;;;3.43;86.93;98300.91;5056602;28;20056;-75
2021/01/23 06:26:52;;;;;;;11.88;8.32;;;;;;;3.29;87.20;98292.06;5056519;28;20131;-75
2021/01/23 06:29:41;;;;;;;15.52;8.85;;;;;;;3.16;87.09;98284.03;5056173;28;20403;-76
2021/01/23 06:32:13;;;;;;;12.25;7.72;;;;;;;3.11;87.55;98292.22;5055453;28;20056;-75
2021/01/23 06:34:48;;;;;;;11.68;7.85;;;;;;;3.09;87.26;98296.75;5055876;28;20064;-75
2021/01/23 06:37:34;;;;;;;11.63;8.20;;;;;;;3.00;87.42;98289.41;5056456;28;20057;-76
2021/01/23 06:40:07;;;;;;;17.20;8.57;;;;;;;2.97;87.63;98295.72;5036900;28;20435;-75
2021/01/23 06:42:37;;;;;;;12.32;7.32;;;;;;;2.97;87.37;98289.59;5036177;28;20064;-75
2021/01/23 06:45:23;;;;;;;12.55;8.23;;;;;;;2.87;87.77;98280.56;5035937;28;20061;-76
2021/01/23 06:47:57;;;;;;;12.77;8.18;;;;;;;2.87;87.73;98288.47;5035924;28;20060;-75
2021/01/23 06:50:29;;;;;;;13.40;8.23;;;;;;;2.79;87.60;98281.00;5035907;28;20049;-75
2021/01/23 06:52:55;;;;;;;13.68;8.48;;;;;;;2.79;87.83;98289.72;5035818;28;20049;-75
2021/01/23 06:55:46;;;;;;;12.60;7.70;;;;;;;2.79;87.90;98297.63;5035684;28;20053;-74
2021/01/23 06:58:27;;;;;;;11.52;7.72;;;;;;;2.77;88.06;98296.88;5043638;28;20060;-74
2021/01/23 07:00:58;;;;;;;10.50;7.65;;;;;;;2.70;88.01;98279.75;5036209;28;20057;-76
2021/01/23 07:03:27;;;;;;;11.45;7.63;;;;;;;2.56;87.56;98260.34;5035608;28;20049;-75
2021/01/23 07:05:55;;;;;;;9.45;6.97;;;;;;;2.74;87.55;98293.59;5035689;28;20049;-75
2021/01/23 07:08:45;;;;;;;10.23;6.93;;;;;;;2.74;87.61;98293.59;5035633;28;20057;-78
2021/01/23 07:11:21;;;;;;;12.10;7.03;;;;;;;2.64;87.45;98278.34;5034295;28;20045;-72
2021/01/23 07:14:07;;;;;;;10.27;6.78;;;;;;;2.70;87.35;98288.50;5035479;28;20057;-76
2021/01/23 07:16:35;;;;;;;11.05;6.97;;;;;;;2.60;87.65;98295.25;5035410;28;20398;-77
2021/01/23 07:19:05;;;;;;;13.75;7.65;;;;;;;2.64;87.84;98295.91;5034400;28;20054;-74
2021/01/23 07:21:33;;;;;;;11.57;6.85;;;;;;;2.65;87.21;98287.06;5035742;28;20061;-74
2021/01/23 07:24:01;;;;;;;11.25;7.68;;;;;;;2.64;87.28;98299.41;5035597;28;20057;-74
2021/01/23 07:26:28;;;;;;;13.10;6.40;;;;;;;2.61;87.09;98299.56;5034385;28;20053;-73
2021/01/23 07:28:56;;;;;;;10.90;6.53;;;;;;;2.49;87.34;98290.59;5035444;28;20045;-72
2021/01/23 07:31:30;;;;;;;13.60;7.00;;;;;;;2.51;87.42;98303.69;5035231;28;20060;-74
2021/01/23 07:33:59;;;;;;;12.43;6.45;;;;;;;2.52;87.30;98297.47;5035404;28;20081;-75
2021/01/23 07:36:37;;;;;;;11.75;6.45;;;;;;;2.49;87.16;98306.41;5035042;28;20065;-77
2021/01/23 07:39:09;;;;;;;9.48;5.95;;;;;;;2.44;87.75;98301.41;5045608;28;20053;-76
2021/01/23 07:41:39;;;;;;;10.27;6.38;;;;;;;2.47;87.43;98297.75;5054534;28;20458;-77
2021/01/23 07:44:09;;;;;;;12.85;7.32;;;;;;;2.41;87.30;98288.41;5045767;28;20074;-75
2021/01/23 07:46:43;;;;;;;12.30;6.85;;;;;;;2.41;87.61;98291.03;5035385;28;20049;-76
2021/01/23 07:49:22;;;;;;;13.88;6.80;;;;;;;2.41;87.44;98292.84;5034967;28;20049;-78
2021/01/23 07:51:50;;;;;;;10.07;6.80;;;;;;;2.38;87.29;98285.09;5036564;28;20057;-79
2021/01/23 07:54:19;;;;;;;13.73;6.72;;;;;;;2.48;87.25;98298.59;5035225;28;20046;-84
2021/01/23 07:56:56;;;;;;;14.45;6.20;;;;;;;2.47;87.19;98297.75;5036039;28;20053;-78
2021/01/23 07:59:45;;;;;;;9.30;6.32;;;;;;;2.49;87.33;98300.28;5046687;28;20049;-79
2021/01/23 08:02:12;;;;;;;9.07;5.93;;;;;;;2.45;86.91;98289.06;5039397;28;20057;-77
2021/01/23 08:04:40;;;;;;;11.27;6.15;;;;;;;2.49;86.72;98293.22;5051253;28;20345;-81
2021/01/23 08:07:26;;;;;;;12.85;6.63;;;;;;;2.48;86.24;98293.31;5049890;28;20057;-80
2021/01/23 08:10:11;;;;;;;13.40;6.70;;;;;;;2.45;87.00;98294.34;5053701;28;20346;-81
2021/01/23 08:12:39;;;;;;;12.63;6.03;;;;;;;2.43;86.72;98290.94;5052744;28;20050;-78
2021/01/23 08:15:07;;;;;;;17.85;6.82;;;;;;;2.39;86.63;98282.38;5038245;28;20049;-76
2021/01/23 08:17:42;;;;;;;9.38;6.30;;;;;;;2.43;86.56;98288.31;5039099;28;20099;-79
2021/01/23 08:20:14;;;;;;;8.18;6.32;;;;;;;2.49;86.17;98290.59;5040291;28;20056;-81
2021/01/23 08:23:06;;;;;;;7.85;5.35;;;;;;;2.54;85.33;98288.56;5056381;28;20044;-79
2021/01/23 08:25:54;;;;;;;11.20;5.30;;;;;;;2.54;85.27;98278.03;5046772;28;20068;-80
2021/01/23 08:28:33;;;;;;;9.07;5.00;;;;;;;2.60;84.50;98289.16;5046612;28;20390;-78
2021/01/23 08:31:21;;;;;;;11.73;4.90;;;;;;;2.62;84.14;98276.72;5047338;28;20053;-79
2021/01/23 08:33:57;;;;;;;11.52;4.30;;;;;;;2.64;83.63;98273.06;5031039;28;20053;-76
2021/01/23 08:36:42;;;;;;;9.90;5.40;;;;;;;2.69;83.75;98280.69;5038342;28;20530;-79
2021/01/23 08:39:10;;;;;;;6.90;4.75;;;;;;;2.66;83.79;98275.63;5049914;28;20051;-80
2021/01/23 08:41:39;;;;;;;11.88;5.00;;;;;;;2.62;84.11;98274.09;5057484;28;20457;-77
2021/01/23 08:44:06;;;;;;;11.25;6.32;;;;;;;2.72;83.32;98283.13;5058516;28;20132;-75
2021/01/23 08:46:34;;;;;;;7.20;4.72;;;;;;;2.69;83.53;98275.41;5058339;28;20056;-81
2021/01/23 08:49:00;;;;;;;10.45;4.97;;;;;;;2.69;83.75;98285.97;5018990;28;20057;-78
2021/01/23 08:51:27;;;;;;;11.18;5.38;;;;;;;2.68;83.78;98273.72;5047548;28;20048;-79
2021/01/23 08:53:53;;;;;;;11.88;5.85;;;;;;;2.70;84.40;98277.97;5035436;28;20382;-78
2021/01/23 08:56:20;;;;;;;11.70;5.43;;;;;;;2.73;84.73;98284.84;5047391;28;20049;-79
2021/01/23 08:58:47;;;;;;;10.85;5.47;;;;;;;2.79;84.48;98281.81;5046150;28;20040;-78
2021/01/23 09:01:14;;;;;;;10.15;4.95;;;;;;;2.70;84.85;98270.06;5050732;28;20435;-77
2021/01/23 09:03:42;;;;;;;14.77;5.63;;;;;;;2.86;84.98;98287.59;5038260;28;20402;-76
2021/01/23 09:06:09;;;;;;;11.30;5.35;;;;;;;2.80;85.23;98270.38;5048148;28;20713;-77
2021/01/23 09:08:35;;;;;;;11.55;5.32;;;;;;;2.89;85.14;98281.28;5053374;28;20136;-77
2021/01/23 09:11:03;;;;;;;15.70;6.55;;;;;;;2.97;84.64;98281.69;5057851;28;20060;-76
2021/01/23 09:13:29;;;;;;;9.68;5.03;;;;;;;2.85;84.51;98249.84;5057654;28;20045;-76
2021/01/23 09:15:55;;;;;;;10.00;5.32;;;;;;;3.09;84.29;98275.66;5054286;28;20107;-77
2021/01/23 09:18:21;;;;;;;9.13;5.00;;;;;;;3.10;84.40;98274.72;5057669;28;20144;-76
2021/01/23 09:20:48;;;;;;;13.95;4.65;;;;;;;3.16;84.02;98270.03;5055714;28;20073;-78
2021/01/23 09:23:20;;;;;;;9.07;4.35;;;;;;;3.18;83.73;98273.41;5044604;28;20103;-78
2021/01/23 09:25:47;;;;;;;8.90;4.63;;;;;;;3.21;83.63;98267.97;5039862;28;20055;-76
2021/01/23 09:28:13;;;;;;;9.82;5.10;;;;;;;3.28;83.34;98268.41;5046783;28;20133;-75
2021/01/23 09:30:39;;;;;;;10.50;5.05;;;;;;;3.31;83.11;98276.16;5045227;28;20046;-76
2021/01/23 09:33:05;;;;;;;11.70;4.82;;;;;;;3.35;82.85;98272.38;5054766;28;20057;-75
2021/01/23 09:35:32;;;;;;;8.32;3.83;;;;;;;3.25;82.86;98243.94;5056917;28;20057;-76
2021/01/23 09:38:00;;;;;;;9.75;4.20;;;;;;;3.53;82.50;98265.97;5040532;28;20068;-78
2021/01/23 09:40:28;;;;;;;12.23;4.77;;;;;;;3.59;82.62;98269.16;5054907;28;20359;-78
2021/01/23 09:42:56;;;;;;;9.63;4.13;;;;;;;3.65;81.74;98266.97;5058318;28;20084;-81
2021/01/23 09:45:22;;;;;;;7.40;4.28;;;;;;;3.65;82.36;98263.50;5057336;28;20423;-78
2021/01/23 09:47:48;;;;;;;8.48;4.50;;;;;;;3.70;81.52;98258.75;5039533;28;20068;-75
2021/01/23 09:50:18;;;;;;;5.88;3.80;;;;;;;3.74;81.83;98262.06;5043490;28;20418;-78
2021/01/23 09:52:44;;;;;;;6.45;4.10;;;;;;;3.73;81.57;98253.31;5041001;28;20343;-78
2021/01/23 09:55:11;;;;;;;11.50;4.75;;;;;;;3.79;81.25;98257.34;5035957;28;20057;-80
2021/01/23 09:57:37;;;;;;;8.15;3.75;;;;;;;3.83;80.94;98261.50;5027997;28;20371;-80
2021/01/23 10:00:05;;;;;;;10.93;4.32;;;;;;;3.83;81.08;98248.28;5037338;28;20107;-78
2021/01/23 10:02:34;;;;;;;10.18;4.00;;;;;;;3.85;79.87;98251.66;5045619;28;20049;-78
2021/01/23 10:05:01;;;;;;;9.50;3.53;;;;;;;3.92;80.30;98254.78;5056792;28;20361;-80
2021/01/23 10:07:28;;;;;;;8.70;3.92;;;;;;;3.89;80.08;98255.81;5054243;28;20049;-78
2021/01/23 10:09:55;;;;;;;7.47;4.22;;;;;;;3.94;80.09;98251.06;5029280;28;20049;-77
2021/01/23 10:12:21;;;;;;;7.28;3.88;;;;;;;4.00;80.03;98262.19;5043833;28;20045;-77
2021/01/23 10:14:47;;;;;;;10.18;3.97;;;;;;;4.01;79.42;98251.53;5053979;28;20115;-76
2021/01/23 10:17:14;;;;;;;7.85;3.30;;;;;;;4.03;78.92;98256.72;5036280;28;20453;-77
2021/01/23 10:19:41;;;;;;;8.88;3.42;;;;;;;4.06;77.96;98252.09;5051946;28;20089;-77
2021/01/23 10:22:07;;;;;;;6.45;3.25;;;;;;;4.06;78.84;98245.94;5050327;28;20053;-75
2021/01/23 10:24:33;;;;;;;11.35;3.65;;;;;;;4.11;78.44;98259.69;5056913;28;20060;-78
2021/01/23 10:27:00;;;;;;;7.15;3.10;;;;;;;4.15;78.65;98255.06;5049157;28;20057;-77
2021/01/23 10:29:26;;;;;;;9.80;3.30;;;;;;;4.17;78.43;98243.47;5050621;28;20045;-76
2021/01/23 10:31:52;;;;;;;8.23;3.25;;;;;;;4.21;78.18;98244.09;5036014;28;20427;-77
2021/01/23 10:34:18;;;;;;;9.10;3.58;;;;;;;4.29;77.98;98247.09;5036559;28;20455;-77
2021/01/23 10:36:44;;;;;;;9.10;3.92;;;;;;;4.39;78.10;98249.97;5036098;28;20060;-79
2021/01/23 10:39:11;;;;;;;7.57;4.07;;;;;;;4.43;77.28;98238.25;5036123;28;20041;-74
2021/01/23 10:41:51;;;;;;;8.60;3.20;;;;;;;4.36;76.59;98215.81;5091964;28;20350;-78
2021/01/23 10:44:17;;;;;;;8.15;3.33;;;;;;;4.53;77.14;98245.56;5081080;28;20048;-76
2021/01/23 10:46:43;;;;;;;11.70;3.35;;;;;;;4.59;76.30;98242.50;5082709;28;20052;-75
2021/01/23 10:49:10;;;;;;;7.38;3.08;;;;;;;4.68;76.47;98247.16;5079508;28;20102;-76
2021/01/23 10:51:36;;;;;;;8.90;3.25;;;;;;;4.70;75.79;98228.56;5077774;28;20060;-77
2021/01/23 10:54:02;;;;;;;8.02;2.92;;;;;;;4.80;75.00;98234.91;5066204;28;20052;-74
2021/01/23 10:56:28;;;;;;;10.25;5.45;;;;;;;4.73;75.74;98210.69;5052081;28;20060;-76
2021/01/23 10:59:01;;;;;;;5.10;2.67;;;;;;;4.74;75.24;98209.75;5045796;28;20492;-78
2021/01/23 11:01:29;;;;;;;9.93;2.65;;;;;;;4.95;74.26;98225.06;5057016;28;20124;-79
2021/01/23 11:03:57;;;;;;;7.03;2.80;;;;;;;4.90;74.61;98216.59;5060607;28;20049;-75
2021/01/23 11:06:24;;;;;;;7.38;2.47;;;;;;;4.99;74.76;98217.78;5039798;28;20439;-75
2021/01/23 11:08:50;;;;;;;6.57;2.63;;;;;;;5.08;74.24;98217.16;5051554;28;20056;-78
2021/01/23 11:11:16;;;;;;;5.40;2.40;;;;;;;5.07;73.71;98202.22;5051944;28;20576;-75
2021/01/23 11:13:42;;;;;;;7.50;2.45;;;;;;;5.10;72.92;98204.66;5050835;28;20107;-76
2021/01/23 11:16:09;;;;;;;9.52;2.55;;;;;;;5.19;72.63;98211.13;5051739;28;20049;-75
2021/01/23 11:18:36;;;;;;;6.45;2.13;;;;;;;5.13;72.79;98180.63;5053066;28;20145;-74
2021/01/23 11:21:08;;;;;;;6.68;2.40;;;;;;;5.31;73.50;98196.16;5061598;28;20060;-76
2021/01/23 11:23:34;;;;;;;12.13;2.67;;;;;;;5.27;74.29;98184.97;5051424;28;20049;-76
2021/01/23 11:26:01;;;;;;;8.35;3.75;;;;;;;5.23;72.68;98183.47;5054607;28;20053;-80
2021/01/23 11:28:27;;;;;;;3.42;1.80;;;;;;;5.20;73.06;98178.41;5072069;28;20147;-78
2021/01/23 11:30:53;;;;;;;7.63;2.15;;;;;;;5.26;73.20;98191.22;5068659;28;20485;-76
2021/01/23 11:33:22;;;;;;;8.00;2.33;;;;;;;5.31;73.77;98185.59;5062558;28;20045;-77
2021/01/23 11:35:48;;;;;;;4.05;1.70;;;;;;;5.23;72.09;98178.19;5068996;28;20157;-76
2021/01/23 11:38:15;;;;;;;4.25;2.20;;;;;;;5.25;73.40;98178.94;5057746;28;20045;-76
2021/01/23 11:40:43;;;;;;;5.38;2.17;;;;;;;5.24;72.95;98171.94;5066095;28;20064;-76
2021/01/23 11:43:10;;;;;;;6.18;1.85;;;;;;;5.33;72.29;98167.78;5067092;28;20052;-75
2021/01/23 11:45:36;;;;;;;5.43;1.77;;;;;;;5.28;72.85;98168.13;5062974;28;20041;-76
2021/01/23 11:48:03;;;;;;;5.80;1.90;;;;;;;5.35;72.65;98168.56;5070071;28;20057;-77